createdAt,value
2022-11-22T00:00:49.355Z,94.27
2022-11-22T00:03:16.066Z,92.83
2022-11-22T00:05:42.734Z,93.20
2022-11-22T00:08:09.464Z,93.62
2022-11-22T00:10:36.234Z,92.10
2022-11-22T00:13:03.429Z,93.21
2022-11-22T00:15:30.638Z,91.95
2022-11-22T00:17:57.614Z,91.12
2022-11-22T00:20:24.394Z,92.15
2022-11-22T00:22:51.039Z,92.65
2022-11-22T00:25:18.021Z,93.48
2022-11-22T00:27:44.804Z,93.93
2022-11-22T00:30:11.762Z,94.18
2022-11-22T00:32:38.493Z,94.92
2022-11-22T00:35:05.748Z,95.47
2022-11-22T00:37:32.475Z,95.20
2022-11-22T00:39:59.297Z,95.06
2022-11-22T00:42:26.152Z,95.56
2022-11-22T00:47:30.685Z,95.10
2022-11-22T00:49:57.369Z,95.87
2022-11-22T00:52:24.020Z,95.07
2022-11-22T00:54:54.703Z,94.74
2022-11-22T00:57:21.609Z,94.44
2022-11-22T00:59:48.249Z,94.46
2022-11-22T01:02:15.001Z,93.97
2022-11-22T01:04:41.743Z,94.56
2022-11-22T01:07:09.941Z,94.21
2022-11-22T01:09:36.700Z,96.49
2022-11-22T01:12:03.504Z,98.27
2022-11-22T01:14:30.270Z,96.17
2022-11-22T01:16:56.943Z,96.16
2022-11-22T01:19:23.612Z,94.03
2022-11-22T01:21:50.240Z,93.58
2022-11-22T01:24:16.914Z,95.16
2022-11-22T01:26:43.584Z,95.41
2022-11-22T01:29:10.249Z,94.20
2022-11-22T01:31:36.989Z,92.83
2022-11-22T01:34:05.956Z,92.28
2022-11-22T01:36:32.618Z,92.07
2022-11-22T01:38:59.256Z,93.79
2022-11-22T01:43:58.808Z,93.96
2022-11-22T01:46:39.688Z,95.75
2022-11-22T01:51:51.563Z,96.55
2022-11-22T01:54:22.848Z,99.55
2022-11-22T01:56:56.465Z,98.78
2022-11-22T01:59:28.801Z,97.93
2022-11-22T02:01:56.299Z,96.62
2022-11-22T02:04:24.927Z,96.58
2022-11-22T02:07:08.208Z,98.03
2022-11-22T02:09:37.684Z,99.33
2022-11-22T02:12:06.577Z,99.66
2022-11-22T02:14:34.523Z,98.48
2022-11-22T02:17:01.193Z,97.58
2022-11-22T02:19:45.710Z,99.51
2022-11-22T02:22:21.666Z,98.04
2022-11-22T02:24:57.168Z,97.17
2022-11-22T02:27:24.373Z,97.06
2022-11-22T02:29:51.328Z,97.87
2022-11-22T02:32:18.019Z,96.94
2022-11-22T02:34:49.781Z,97.99
2022-11-22T02:37:22.599Z,98.45
2022-11-22T02:39:53.767Z,98.35
2022-11-22T02:42:20.657Z,98.85
2022-11-22T02:44:47.304Z,99.30
2022-11-22T02:47:14.036Z,99.71
2022-11-22T02:49:40.703Z,99.72
2022-11-22T02:52:07.320Z,99.93
2022-11-22T02:54:34.001Z,99.89
2022-11-22T02:57:03.216Z,100.00
2022-11-22T03:02:03.368Z,99.84
2022-11-22T03:04:30.452Z,100.00
2022-11-22T03:06:59.376Z,100.00
2022-11-22T03:09:27.700Z,99.95
2022-11-22T03:11:55.171Z,99.86
2022-11-22T03:14:22.098Z,99.76
2022-11-22T03:16:49.327Z,99.19
2022-11-22T03:19:16.171Z,98.76
2022-11-22T03:21:43.517Z,99.51
2022-11-22T03:24:11.079Z,99.24
2022-11-22T03:26:37.894Z,98.21
2022-11-22T03:29:05.358Z,99.57
2022-11-22T03:31:32.077Z,99.52
2022-11-22T03:33:58.761Z,100.00
2022-11-22T03:36:25.437Z,99.39
2022-11-22T03:38:52.098Z,99.34
2022-11-22T03:41:18.833Z,98.80
2022-11-22T03:43:45.573Z,99.63
2022-11-22T03:46:15.503Z,100.00
2022-11-22T03:48:42.403Z,99.95
2022-11-22T03:51:09.227Z,99.17
2022-11-22T03:53:35.940Z,98.49
2022-11-22T03:56:02.611Z,100.00
2022-11-22T03:58:29.337Z,100.00
2022-11-22T04:00:56.548Z,100.00
2022-11-22T04:03:23.282Z,99.97
2022-11-22T04:05:49.929Z,98.96
2022-11-22T04:08:16.534Z,100.00
2022-11-22T04:10:43.179Z,100.00
2022-11-22T04:13:09.866Z,100.00
2022-11-22T04:15:37.458Z,100.00
2022-11-22T04:18:04.131Z,100.00
2022-11-22T04:20:49.788Z,100.00
2022-11-22T04:23:19.313Z,99.60
2022-11-22T04:25:51.244Z,100.00
2022-11-22T04:28:24.516Z,100.00
2022-11-22T04:31:16.331Z,100.00
2022-11-22T04:33:42.975Z,100.00
2022-11-22T04:36:13.297Z,100.00
2022-11-22T04:38:40.245Z,100.00
2022-11-22T04:41:06.886Z,100.00
2022-11-22T04:43:52.223Z,100.00
2022-11-22T04:46:18.881Z,100.00
2022-11-22T04:51:41.871Z,100.00
2022-11-22T04:54:08.537Z,100.00
2022-11-22T04:56:35.187Z,100.00
2022-11-22T04:59:01.904Z,100.00
2022-11-22T05:01:28.555Z,100.00
2022-11-22T05:03:55.253Z,100.00
2022-11-22T05:06:21.919Z,100.00
2022-11-22T05:08:48.561Z,100.00
2022-11-22T05:11:15.210Z,100.00
2022-11-22T05:16:15.771Z,100.00
2022-11-22T05:18:42.668Z,100.00
2022-11-22T05:21:12.661Z,100.00
2022-11-22T05:23:54.777Z,100.00
2022-11-22T05:26:27.599Z,100.00
2022-11-22T05:28:54.487Z,100.00
2022-11-22T05:34:00.103Z,100.00
2022-11-22T05:36:27.971Z,100.00
2022-11-22T05:38:54.962Z,100.00
2022-11-22T05:41:21.693Z,100.00
2022-11-22T05:43:48.337Z,100.00
2022-11-22T05:46:24.998Z,100.00
2022-11-22T05:48:53.494Z,100.00
2022-11-22T05:51:22.493Z,100.00
2022-11-22T05:53:49.301Z,100.00
2022-11-22T05:56:22.049Z,100.00
2022-11-22T05:58:49.107Z,100.00
2022-11-22T06:01:23.201Z,100.00
2022-11-22T06:03:50.463Z,100.00
2022-11-22T06:06:17.632Z,100.00
2022-11-22T06:08:47.069Z,100.00
2022-11-22T06:11:25.747Z,100.00
2022-11-22T06:14:00.722Z,100.00
2022-11-22T06:16:27.624Z,100.00
2022-11-22T06:18:55.211Z,100.00
2022-11-22T06:21:25.842Z,100.00
2022-11-22T06:23:54.250Z,100.00
2022-11-22T06:29:00.772Z,100.00
2022-11-22T06:31:28.082Z,100.00
2022-11-22T06:33:57.000Z,100.00
2022-11-22T06:36:26.270Z,100.00
2022-11-22T06:38:53.020Z,100.00
2022-11-22T06:41:22.155Z,100.00
2022-11-22T06:43:51.369Z,100.00
2022-11-22T06:46:20.346Z,100.00
2022-11-22T06:48:47.529Z,100.00
2022-11-22T06:51:16.719Z,100.00
2022-11-22T06:53:48.609Z,100.00
2022-11-22T06:56:33.475Z,100.00
2022-11-22T07:01:49.324Z,100.00
2022-11-22T07:04:16.224Z,100.00
2022-11-22T07:09:32.263Z,100.00
2022-11-22T07:12:00.040Z,100.00
2022-11-22T07:14:27.055Z,100.00
2022-11-22T07:16:53.748Z,100.00
2022-11-22T07:19:20.629Z,100.00
2022-11-22T07:21:47.542Z,100.00
2022-11-22T07:26:46.866Z,99.85
2022-11-22T07:29:13.878Z,100.00
2022-11-22T07:31:40.943Z,100.00
2022-11-22T07:34:07.627Z,100.00
2022-11-22T07:36:34.914Z,100.00
2022-11-22T07:39:03.546Z,100.00
2022-11-22T07:41:30.351Z,100.00
2022-11-22T07:43:58.172Z,100.00
2022-11-22T07:46:31.641Z,100.00
2022-11-22T07:48:59.542Z,100.00
2022-11-22T07:51:27.681Z,100.00
2022-11-22T07:53:55.935Z,100.00
2022-11-22T07:56:23.331Z,99.80
2022-11-22T07:58:49.923Z,99.47
2022-11-22T08:01:18.542Z,99.59
2022-11-22T08:03:45.589Z,99.91
2022-11-22T08:06:13.524Z,100.00
2022-11-22T08:08:40.175Z,99.82
2022-11-22T08:11:08.204Z,99.82
2022-11-22T08:13:35.627Z,99.84
2022-11-22T08:16:06.414Z,99.56
2022-11-22T08:18:34.621Z,99.66
2022-11-22T08:21:13.183Z,98.42
2022-11-22T08:23:41.411Z,98.17
2022-11-22T08:26:11.117Z,98.27
2022-11-22T08:28:37.801Z,97.53
2022-11-22T08:31:08.619Z,96.58
2022-11-22T08:33:35.320Z,96.30
2022-11-22T08:36:02.633Z,96.17
2022-11-22T08:38:29.301Z,94.79
2022-11-22T08:40:56.221Z,96.12
2022-11-22T08:43:22.985Z,95.87
2022-11-22T08:45:54.649Z,97.32
2022-11-22T08:48:22.576Z,97.40
2022-11-22T08:50:57.788Z,95.95
2022-11-22T08:53:25.335Z,95.54
2022-11-22T08:55:52.655Z,95.62
2022-11-22T09:00:53.969Z,96.72
2022-11-22T09:03:20.716Z,97.69
2022-11-22T09:08:36.633Z,96.23
2022-11-22T09:11:10.002Z,97.24
2022-11-22T09:13:37.159Z,98.23
2022-11-22T09:16:09.213Z,97.00
2022-11-22T09:18:36.268Z,95.96
2022-11-22T09:23:39.750Z,97.23
2022-11-22T09:26:09.524Z,95.85
2022-11-22T09:28:36.574Z,95.62
2022-11-22T09:31:15.085Z,95.15
2022-11-22T09:33:45.240Z,96.52
2022-11-22T09:36:17.255Z,94.78
2022-11-22T09:38:43.968Z,94.70
2022-11-22T09:41:16.556Z,93.41
2022-11-22T09:46:44.801Z,93.45
2022-11-22T09:49:35.274Z,94.25
2022-11-22T09:52:05.247Z,93.94
2022-11-22T09:54:45.138Z,92.81
2022-11-22T09:57:21.827Z,93.88
2022-11-22T09:59:55.064Z,92.90
2022-11-22T10:02:58.878Z,92.77
2022-11-22T10:05:32.422Z,92.78
2022-11-22T10:08:16.448Z,90.89
2022-11-22T10:10:43.960Z,90.14
2022-11-22T10:13:27.837Z,90.46
2022-11-22T10:16:07.682Z,89.35
2022-11-22T10:18:46.293Z,88.26
2022-11-22T10:21:15.344Z,90.41
2022-11-22T10:23:44.070Z,89.88
2022-11-22T10:26:22.392Z,88.99
2022-11-22T10:29:20.092Z,87.33
2022-11-22T10:32:25.741Z,87.36
2022-11-22T10:35:14.295Z,87.19
2022-11-22T10:37:47.076Z,88.22
2022-11-22T10:40:25.720Z,87.30
2022-11-22T10:43:04.462Z,86.50
2022-11-22T10:45:42.154Z,86.03
2022-11-22T10:51:33.088Z,84.49
2022-11-22T10:54:03.462Z,83.94
2022-11-22T10:56:38.824Z,84.43
2022-11-22T10:59:38.578Z,83.52
2022-11-22T11:02:23.444Z,82.67
2022-11-22T11:04:53.145Z,83.16
2022-11-22T11:07:23.962Z,83.39
2022-11-22T11:10:10.914Z,82.73
2022-11-22T11:12:50.631Z,82.61
2022-11-22T11:15:37.861Z,82.87
2022-11-22T11:18:19.946Z,80.71
2022-11-22T11:20:48.035Z,81.43
2022-11-22T11:23:16.285Z,79.79
2022-11-22T11:25:45.560Z,80.02
2022-11-22T11:28:17.695Z,81.17
2022-11-22T11:30:48.226Z,81.02
2022-11-22T11:36:02.995Z,77.04
2022-11-22T11:38:35.902Z,77.84
2022-11-22T11:41:21.292Z,74.91
2022-11-22T11:43:49.332Z,76.34
2022-11-22T11:46:18.056Z,75.15
2022-11-22T11:48:45.366Z,77.10
2022-11-22T11:51:17.796Z,74.76
2022-11-22T11:54:05.866Z,73.56
2022-11-22T11:56:45.290Z,74.43
2022-11-22T11:59:15.659Z,74.63
2022-11-22T12:01:53.647Z,77.07
2022-11-22T12:04:25.575Z,75.07
2022-11-22T12:07:18.227Z,71.79
2022-11-22T12:09:48.029Z,73.88
2022-11-22T12:12:51.518Z,75.31
2022-11-22T12:15:27.710Z,73.49
2022-11-22T12:18:33.491Z,71.14
2022-11-22T12:21:37.368Z,70.86
2022-11-22T12:27:14.827Z,71.45
2022-11-22T12:29:46.330Z,71.80
2022-11-22T12:32:24.355Z,70.61
2022-11-22T12:34:56.981Z,71.29
2022-11-22T12:40:27.200Z,68.58
2022-11-22T12:43:05.488Z,69.16
2022-11-22T12:45:53.328Z,68.54
2022-11-22T12:48:44.571Z,71.32
2022-11-22T12:54:09.203Z,68.02
2022-11-22T12:56:58.377Z,67.30
2022-11-22T13:00:02.851Z,66.46
2022-11-22T13:02:39.237Z,66.99
2022-11-22T13:05:13.728Z,68.46
2022-11-22T13:08:17.640Z,68.12
2022-11-22T13:10:49.887Z,66.99
2022-11-22T13:13:38.739Z,67.86
2022-11-22T13:16:10.466Z,67.84
2022-11-22T13:18:45.192Z,68.43
2022-11-22T13:21:30.044Z,67.50
2022-11-22T13:24:27.497Z,66.78
2022-11-22T13:27:11.767Z,66.79
2022-11-22T13:29:41.535Z,66.71
2022-11-22T13:32:13.919Z,68.26
2022-11-22T13:34:58.779Z,67.54
2022-11-22T13:37:26.341Z,65.55
2022-11-22T13:39:53.257Z,68.29
2022-11-22T13:42:27.711Z,68.19
2022-11-22T13:49:59.945Z,68.99
2022-11-22T13:52:50.933Z,68.34
2022-11-22T13:55:30.628Z,68.40
2022-11-22T13:58:23.271Z,66.82
2022-11-22T14:00:50.913Z,67.83
2022-11-22T14:03:26.750Z,67.42
2022-11-22T14:05:57.315Z,67.63
2022-11-22T14:08:35.486Z,68.69
2022-11-22T14:13:59.810Z,67.77
2022-11-22T14:16:40.101Z,66.81
2022-11-22T14:19:31.686Z,68.43
2022-11-22T14:25:14.146Z,67.63
2022-11-22T14:28:08.590Z,67.41
2022-11-22T14:30:44.680Z,66.91
2022-11-22T14:33:17.433Z,67.23
2022-11-22T14:36:09.690Z,67.90
2022-11-22T14:38:37.088Z,68.05
2022-11-22T14:41:28.361Z,69.16
2022-11-22T14:46:58.044Z,67.46
2022-11-22T14:49:46.747Z,81.44
2022-11-22T14:52:26.398Z,67.14
2022-11-22T14:54:58.103Z,65.91
2022-11-22T14:57:26.962Z,67.89
2022-11-22T15:03:09.869Z,66.25
2022-11-22T15:09:21.752Z,67.40
2022-11-22T15:09:53.057Z,69.54
2022-11-22T15:12:24.684Z,67.38
2022-11-22T15:57:27.516Z,69.93
2022-11-22T15:59:54.930Z,70.80
2022-11-22T16:02:25.534Z,69.04
2022-11-22T16:06:08.553Z,68.92
2022-11-22T16:07:49.060Z,71.61
2022-11-22T16:10:25.868Z,70.87
2022-11-22T16:12:54.390Z,70.40
2022-11-22T16:15:26.136Z,79.70
2022-11-22T16:21:04.949Z,68.19
2022-11-22T16:23:34.114Z,68.00
2022-11-22T16:29:47.069Z,68.96
2022-11-22T16:32:15.483Z,70.18
2022-11-22T16:34:43.518Z,69.36
2022-11-22T16:37:37.676Z,69.59
2022-11-22T16:40:06.415Z,69.74
2022-11-22T16:45:06.611Z,69.77
2022-11-22T16:47:33.281Z,70.34
2022-11-22T16:49:59.974Z,69.73
2022-11-22T16:52:26.594Z,70.16
2022-11-22T16:54:53.254Z,71.73
2022-11-22T16:57:19.900Z,70.30
2022-11-22T16:59:46.579Z,70.99
2022-11-22T17:02:15.859Z,71.90
2022-11-22T17:04:45.926Z,70.82
2022-11-22T17:07:13.661Z,71.21
2022-11-22T17:09:40.629Z,70.47
2022-11-22T17:12:22.618Z,70.68
2022-11-22T17:14:51.059Z,71.31
2022-11-22T17:17:18.913Z,71.41
2022-11-22T17:19:53.046Z,71.42
2022-11-22T17:22:20.789Z,70.56
2022-11-22T17:24:47.421Z,73.33
2022-11-22T17:27:14.560Z,70.90
2022-11-22T17:29:56.999Z,72.40
2022-11-22T17:35:00.658Z,71.87
2022-11-22T17:37:29.603Z,72.43
2022-11-22T17:39:56.190Z,73.00
2022-11-22T17:42:24.305Z,72.03
2022-11-22T17:44:50.966Z,72.61
2022-11-22T17:49:55.561Z,74.18
2022-11-22T17:52:22.238Z,73.77
2022-11-22T17:54:48.874Z,72.86
2022-11-22T17:59:52.773Z,82.56
2022-11-22T18:02:19.495Z,72.33
2022-11-22T18:04:46.137Z,73.54
2022-11-22T18:07:20.015Z,72.98
2022-11-22T18:09:52.941Z,72.91
2022-11-22T18:12:25.788Z,73.51
2022-11-22T18:14:58.521Z,75.13
2022-11-22T18:17:35.255Z,73.40
2022-11-22T18:20:08.426Z,73.53
2022-11-22T18:25:20.338Z,74.65
2022-11-22T18:27:47.008Z,75.09
2022-11-22T18:30:14.468Z,74.57
2022-11-22T18:32:41.095Z,75.43
2022-11-22T18:35:08.104Z,75.88
2022-11-22T18:37:34.803Z,74.88
2022-11-22T18:40:01.474Z,75.41
2022-11-22T18:42:28.126Z,75.65
2022-11-22T18:44:54.794Z,75.76
2022-11-22T18:47:21.496Z,75.85
2022-11-22T18:49:48.352Z,78.87
2022-11-22T18:52:17.821Z,75.97
2022-11-22T18:54:44.978Z,76.49
2022-11-22T18:57:11.807Z,83.29
2022-11-22T18:59:38.500Z,80.70
2022-11-22T19:02:05.130Z,74.76
2022-11-22T19:04:32.015Z,71.05
2022-11-22T19:06:59.615Z,72.21
2022-11-22T19:09:26.238Z,73.34
2022-11-22T19:11:58.403Z,74.29
2022-11-22T19:14:27.241Z,75.09
2022-11-22T19:16:53.973Z,75.86
2022-11-22T19:19:20.686Z,76.37
2022-11-22T19:21:47.355Z,76.49
2022-11-22T19:24:14.022Z,76.73
2022-11-22T19:26:40.689Z,77.15
2022-11-22T19:29:07.376Z,77.39
2022-11-22T19:31:34.099Z,77.53
2022-11-22T19:34:00.835Z,77.49
2022-11-22T19:36:36.393Z,77.18
2022-11-22T19:39:05.264Z,77.41
2022-11-22T19:41:32.251Z,77.42
2022-11-22T19:43:59.070Z,77.28
2022-11-22T19:46:26.439Z,76.99
2022-11-22T19:48:55.193Z,77.67
2022-11-22T19:51:22.799Z,77.34
2022-11-22T19:53:53.578Z,77.05
2022-11-22T19:56:21.165Z,77.04
2022-11-22T19:58:52.426Z,76.99
2022-11-22T20:01:20.271Z,78.02
2022-11-22T20:03:51.980Z,77.87
2022-11-22T20:06:18.889Z,77.77
2022-11-22T20:08:45.645Z,78.21
2022-11-22T20:11:15.003Z,78.89
2022-11-22T20:13:44.548Z,78.74
2022-11-22T20:16:23.408Z,78.63
2022-11-22T20:18:56.849Z,77.87
2022-11-22T20:21:24.636Z,78.83
2022-11-22T20:23:52.205Z,78.13
2022-11-22T20:26:19.987Z,77.75
2022-11-22T20:28:47.639Z,78.49
2022-11-22T20:31:19.316Z,78.17
2022-11-22T20:33:48.999Z,78.37
2022-11-22T20:36:26.929Z,78.58
2022-11-22T20:38:54.208Z,78.46
2022-11-22T20:41:23.913Z,78.19
2022-11-22T20:43:50.701Z,79.28
2022-11-22T20:46:20.279Z,79.51
2022-11-22T20:48:48.292Z,80.00
2022-11-22T20:51:19.020Z,79.40
2022-11-22T20:53:46.250Z,79.87
2022-11-22T20:56:14.211Z,80.11
2022-11-22T20:58:41.510Z,80.44
2022-11-22T21:01:11.898Z,79.87
2022-11-22T21:03:38.661Z,80.58
2022-11-22T21:06:05.668Z,80.73
2022-11-22T21:08:33.689Z,80.91
2022-11-22T21:11:07.241Z,81.74
2022-11-22T21:13:34.594Z,80.86
2022-11-22T21:16:21.574Z,80.88
2022-11-22T21:18:51.700Z,81.16
2022-11-22T21:21:23.343Z,81.79
2022-11-22T21:23:52.076Z,81.93
2022-11-22T21:26:19.215Z,81.82
2022-11-22T21:28:45.944Z,81.97
2022-11-22T21:31:12.565Z,81.08
2022-11-22T21:33:39.356Z,81.63
2022-11-22T21:36:06.868Z,82.24
2022-11-22T21:38:38.657Z,82.58
2022-11-22T21:41:37.671Z,83.06
2022-11-22T21:43:56.436Z,81.44
2022-11-22T21:46:23.630Z,83.47
2022-11-22T21:48:50.730Z,83.65
2022-11-22T21:51:17.645Z,85.22
2022-11-22T21:53:44.520Z,84.37
2022-11-22T21:56:11.250Z,84.79
2022-11-22T21:58:37.937Z,86.96
2022-11-22T22:01:10.964Z,84.93
2022-11-22T22:03:40.335Z,82.75
2022-11-22T22:06:07.503Z,83.64
2022-11-22T22:08:34.478Z,84.50
2022-11-22T22:11:04.089Z,85.64
2022-11-22T22:13:31.139Z,85.79
2022-11-22T22:16:00.289Z,85.21
2022-11-22T22:18:35.170Z,86.17
2022-11-22T22:21:03.975Z,84.92
2022-11-22T22:23:30.846Z,83.99
2022-11-22T22:26:01.883Z,84.46
2022-11-22T22:28:30.236Z,84.78
2022-11-22T22:31:10.937Z,85.45
2022-11-22T22:33:40.412Z,85.84
2022-11-22T22:38:41.021Z,84.95
2022-11-22T22:41:10.556Z,85.35
2022-11-22T22:43:39.875Z,84.98
2022-11-22T22:46:15.534Z,84.53
2022-11-22T22:51:17.133Z,85.08
2022-11-22T22:53:45.029Z,85.34
2022-11-22T22:56:12.964Z,84.58
2022-11-22T23:01:13.432Z,85.63
2022-11-22T23:03:40.552Z,85.14
2022-11-22T23:06:09.290Z,85.86
2022-11-22T23:08:37.127Z,85.49
2022-11-22T23:13:41.444Z,85.33
2022-11-22T23:16:11.720Z,84.27
2022-11-22T23:18:41.484Z,84.87
2022-11-22T23:21:10.564Z,86.23
2022-11-22T23:23:37.234Z,85.80
2022-11-22T23:26:06.136Z,86.33
2022-11-22T23:28:33.351Z,86.24
2022-11-22T23:31:05.967Z,86.53
2022-11-22T23:33:32.680Z,85.54
2022-11-22T23:36:06.448Z,85.32
2022-11-22T23:38:34.861Z,83.94
2022-11-22T23:41:01.866Z,83.32
2022-11-22T23:43:29.023Z,84.61
2022-11-22T23:45:56.067Z,84.15
2022-11-22T23:48:22.751Z,84.23
2022-11-22T23:50:49.344Z,86.08
2022-11-22T23:53:15.973Z,87.06
2022-11-22T23:55:43.051Z,86.18
2022-11-22T23:58:09.756Z,84.99
